createdAt,value
2018-12-02T00:00:20.805Z,100047.84
2018-12-02T00:03:25.276Z,100036.59
2018-12-02T00:06:29.599Z,100038.58
2018-12-02T00:09:35.781Z,100030.67
2018-12-02T00:12:40.239Z,100027.22
2018-12-02T00:15:44.555Z,100023.17
2018-12-02T00:18:48.971Z,100010.76
2018-12-02T00:21:53.388Z,100006.73
2018-12-02T00:24:57.782Z,99995.66
2018-12-02T00:28:02.323Z,99999.59
2018-12-02T00:31:07.227Z,99992.22
2018-12-02T00:34:12.002Z,99992.70
2018-12-02T00:37:16.427Z,99989.20
2018-12-02T00:40:22.323Z,99988.03
2018-12-02T00:43:26.691Z,99973.50
2018-12-02T00:50:11.773Z,99966.80
2018-12-02T00:53:16.045Z,99960.34
2018-12-02T00:56:18.950Z,99956.09
2018-12-02T00:59:23.231Z,99951.79
2018-12-02T01:02:27.574Z,99948.48
2018-12-02T01:05:32.265Z,99941.62
2018-12-02T01:08:37.307Z,99936.45
2018-12-02T01:11:41.814Z,99942.52
2018-12-02T01:14:46.112Z,99930.95
2018-12-02T01:17:50.615Z,99928.00
2018-12-02T01:20:55.068Z,99921.87
2018-12-02T01:23:59.381Z,99912.55
2018-12-02T01:27:04.069Z,99903.84
2018-12-02T01:30:21.980Z,99898.62
2018-12-02T01:33:26.415Z,99890.45
2018-12-02T01:36:30.722Z,99885.24
2018-12-02T01:39:35.079Z,99880.13
2018-12-02T01:42:39.629Z,99874.42
2018-12-02T01:45:44.254Z,99870.56
2018-12-02T01:48:48.575Z,99866.68
2018-12-02T01:51:53.437Z,99861.19
2018-12-02T01:54:57.749Z,99860.66
2018-12-02T01:58:02.101Z,99858.03
2018-12-02T02:01:06.849Z,99848.13
2018-12-02T02:04:11.306Z,99854.63
2018-12-02T02:07:15.654Z,99838.67
2018-12-02T02:10:22.606Z,99834.37
2018-12-02T02:13:31.767Z,99833.17
2018-12-02T02:19:48.802Z,99822.80
2018-12-02T02:22:54.646Z,99819.02
2018-12-02T02:26:00.737Z,99817.29
2018-12-02T02:29:05.721Z,99807.01
2018-12-02T02:32:10.005Z,99803.48
2018-12-02T02:35:14.874Z,99794.06
2018-12-02T02:38:19.303Z,99784.20
2018-12-02T02:41:23.743Z,99782.48
2018-12-02T02:44:28.114Z,99775.59
2018-12-02T02:47:32.429Z,99766.91
2018-12-02T02:50:36.986Z,99766.13
2018-12-02T02:53:41.361Z,99751.06
2018-12-02T02:56:45.832Z,99746.30
2018-12-02T02:59:51.597Z,99744.19
2018-12-02T03:02:55.931Z,99740.73
2018-12-02T03:06:00.224Z,99729.98
2018-12-02T03:09:06.815Z,99728.65
2018-12-02T03:12:11.172Z,99720.86
2018-12-02T03:15:17.733Z,99717.89
2018-12-02T03:18:22.060Z,99711.95
2018-12-02T03:21:26.630Z,99711.01
2018-12-02T03:24:30.923Z,99706.73
2018-12-02T03:27:35.707Z,99699.47
2018-12-02T03:30:40.919Z,99704.67
2018-12-02T03:33:45.360Z,99693.48
2018-12-02T03:36:49.821Z,99694.30
2018-12-02T03:39:54.183Z,99686.52
2018-12-02T03:42:58.659Z,99690.34
2018-12-02T03:46:03.918Z,99687.02
2018-12-02T03:49:08.277Z,99688.31
2018-12-02T03:52:12.608Z,99687.02
2018-12-02T03:55:18.031Z,99676.62
2018-12-02T03:58:22.539Z,99674.90
2018-12-02T04:01:27.883Z,99671.45
2018-12-02T04:04:32.177Z,99666.41
2018-12-02T04:07:36.525Z,99662.92
2018-12-02T04:10:41.310Z,99655.69
2018-12-02T04:13:45.795Z,99641.48
2018-12-02T04:16:50.095Z,99638.86
2018-12-02T04:19:54.567Z,99643.16
2018-12-02T04:22:59.770Z,99631.97
2018-12-02T04:26:04.504Z,99623.45
2018-12-02T04:29:09.038Z,99620.00
2018-12-02T04:32:14.401Z,99610.49
2018-12-02T04:35:22.914Z,99615.30
2018-12-02T04:38:27.246Z,99613.08
2018-12-02T04:41:31.567Z,99606.66
2018-12-02T04:44:35.860Z,99603.67
2018-12-02T04:47:40.117Z,99604.97
2018-12-02T04:50:44.836Z,99593.34
2018-12-02T04:53:49.266Z,99593.02
2018-12-02T04:56:53.750Z,99587.39
2018-12-02T04:59:58.186Z,99576.66
2018-12-02T05:03:02.587Z,99571.12
2018-12-02T05:06:06.893Z,99566.83
2018-12-02T05:09:12.183Z,99563.81
2018-12-02T05:12:17.004Z,99553.52
2018-12-02T05:15:23.097Z,99553.52
2018-12-02T05:18:27.590Z,99543.61
2018-12-02T05:21:31.859Z,99534.56
2018-12-02T05:24:36.173Z,99536.72
2018-12-02T05:27:40.856Z,99527.71
2018-12-02T05:30:45.099Z,99526.42
2018-12-02T05:33:49.485Z,99528.60
2018-12-02T05:36:53.778Z,99518.30
2018-12-02T05:39:59.702Z,99513.56
2018-12-02T05:43:07.642Z,99518.70
2018-12-02T05:46:14.500Z,99510.09
2018-12-02T05:49:18.886Z,99509.25
2018-12-02T05:52:23.366Z,99509.74
2018-12-02T05:55:34.046Z,99507.50
2018-12-02T05:58:38.358Z,99510.58
2018-12-02T06:01:42.634Z,99510.15
2018-12-02T06:04:47.166Z,99504.09
2018-12-02T06:07:52.348Z,99501.56
2018-12-02T06:10:57.436Z,99499.89
2018-12-02T06:14:03.782Z,99489.16
2018-12-02T06:17:08.661Z,99485.25
2018-12-02T06:20:27.859Z,99483.10
2018-12-02T06:23:32.146Z,99481.35
2018-12-02T06:26:36.516Z,99483.56
2018-12-02T06:29:42.241Z,99474.91
2018-12-02T06:32:47.813Z,99471.49
2018-12-02T06:35:53.913Z,99462.89
2018-12-02T06:38:58.244Z,99465.09
2018-12-02T06:42:02.622Z,99460.78
2018-12-02T06:45:10.938Z,99460.33
2018-12-02T06:48:15.361Z,99456.42
2018-12-02T06:51:19.733Z,99452.55
2018-12-02T06:54:27.500Z,99443.95
2018-12-02T06:57:33.109Z,99452.58
2018-12-02T07:03:00.209Z,99448.30
2018-12-02T07:06:04.509Z,99452.55
2018-12-02T07:09:09.300Z,99449.12
2018-12-02T07:12:13.624Z,99439.25
2018-12-02T07:15:17.905Z,99440.55
2018-12-02T07:18:25.967Z,99440.54
2018-12-02T07:21:34.099Z,99441.45
2018-12-02T07:24:41.085Z,99441.83
2018-12-02T07:27:46.011Z,99440.56
2018-12-02T07:30:50.467Z,99444.87
2018-12-02T07:34:02.557Z,99438.50
2018-12-02T07:37:17.907Z,99440.61
2018-12-02T07:40:29.637Z,99439.72
2018-12-02T07:43:36.241Z,99439.80
2018-12-02T07:46:40.675Z,99445.80
2018-12-02T07:49:51.071Z,99440.20
2018-12-02T07:52:55.374Z,99425.56
2018-12-02T07:55:59.641Z,99421.72
2018-12-02T07:59:04.012Z,99428.61
2018-12-02T08:02:09.429Z,99422.98
2018-12-02T08:05:16.389Z,99421.27
2018-12-02T08:08:20.667Z,99408.78
2018-12-02T08:11:25.081Z,99391.98
2018-12-02T08:14:29.687Z,99401.46
2018-12-02T08:17:34.225Z,99396.75
2018-12-02T08:20:41.256Z,99393.74
2018-12-02T08:23:46.515Z,99395.02
2018-12-02T08:26:51.288Z,99391.57
2018-12-02T08:29:57.048Z,99390.34
2018-12-02T08:33:01.591Z,99391.63
2018-12-02T08:36:06.337Z,99389.50
2018-12-02T08:39:13.818Z,99381.33
2018-12-02T08:42:18.106Z,99377.87
2018-12-02T08:45:22.362Z,99377.00
2018-12-02T08:48:27.189Z,99374.00
2018-12-02T08:51:31.674Z,99372.31
2018-12-02T08:54:36.550Z,99364.58
2018-12-02T08:57:41.081Z,99358.97
2018-12-02T09:00:46.502Z,99358.98
2018-12-02T09:03:51.338Z,99370.27
2018-12-02T09:06:55.652Z,99364.18
2018-12-02T09:10:00.612Z,99362.48
2018-12-02T09:13:07.586Z,99358.17
2018-12-02T09:19:34.781Z,99364.19
2018-12-02T09:22:39.611Z,99363.38
2018-12-02T09:25:44.281Z,99362.06
2018-12-02T09:28:48.626Z,99356.05
2018-12-02T09:31:52.944Z,99356.53
2018-12-02T09:35:00.715Z,99347.48
2018-12-02T09:41:17.810Z,99337.59
2018-12-02T09:44:22.177Z,99338.43
2018-12-02T09:47:26.516Z,99332.84
2018-12-02T09:50:30.786Z,99324.66
2018-12-02T09:53:35.164Z,99322.48
2018-12-02T09:56:39.459Z,99314.75
2018-12-02T09:59:43.897Z,99320.33
2018-12-02T10:02:48.167Z,99307.39
2018-12-02T10:05:53.463Z,99294.89
2018-12-02T10:08:57.799Z,99295.80
2018-12-02T10:12:02.087Z,99288.46
2018-12-02T10:15:10.415Z,99293.64
2018-12-02T10:18:14.859Z,99288.45
2018-12-02T10:21:19.410Z,99290.63
2018-12-02T10:24:23.713Z,99289.77
2018-12-02T10:27:28.010Z,99289.78
2018-12-02T10:30:32.511Z,99294.56
2018-12-02T10:33:36.828Z,99295.38
2018-12-02T10:36:41.181Z,99286.36
2018-12-02T10:39:45.656Z,99279.48
2018-12-02T10:42:50.251Z,99276.87
2018-12-02T10:45:54.812Z,99264.77
2018-12-02T10:49:00.708Z,99263.05
2018-12-02T10:52:05.066Z,99268.69
2018-12-02T10:55:29.051Z,99262.20
2018-12-02T10:58:36.877Z,99260.91
2018-12-02T11:01:42.840Z,99249.24
2018-12-02T11:04:54.397Z,99251.83
2018-12-02T11:07:59.193Z,99241.92
2018-12-02T11:11:03.610Z,99239.79
2018-12-02T11:14:08.092Z,99230.72
2018-12-02T11:17:12.526Z,99238.94
2018-12-02T11:20:17.877Z,99232.02
2018-12-02T11:23:22.209Z,99221.66
2018-12-02T11:26:32.057Z,99214.77
2018-12-02T11:29:36.508Z,99218.23
2018-12-02T11:32:41.843Z,99218.66
2018-12-02T11:35:46.511Z,99215.24
2018-12-02T11:39:01.282Z,99214.41
2018-12-02T11:42:05.776Z,99213.55
2018-12-02T11:45:15.540Z,99207.53
2018-12-02T11:48:29.093Z,99204.92
2018-12-02T11:51:33.413Z,99199.76
2018-12-02T11:54:38.124Z,99192.44
2018-12-02T11:57:42.572Z,99183.38
2018-12-02T12:00:46.900Z,99183.36
2018-12-02T12:03:52.122Z,99175.16
2018-12-02T12:06:56.699Z,99173.02
2018-12-02T12:10:01.228Z,99159.21
2018-12-02T12:13:09.327Z,99160.50
2018-12-02T12:16:14.154Z,99152.31
2018-12-02T12:19:18.563Z,99144.11
2018-12-02T12:22:27.253Z,99143.67
2018-12-02T12:25:31.698Z,99140.66
2018-12-02T12:28:36.846Z,99138.94
2018-12-02T12:31:41.927Z,99135.03
2018-12-02T12:34:51.619Z,99127.27
2018-12-02T12:37:56.103Z,99121.25
2018-12-02T12:41:13.522Z,99121.25
2018-12-02T12:44:18.872Z,99125.13
2018-12-02T12:47:23.274Z,99123.84
2018-12-02T12:50:28.880Z,99125.13
2018-12-02T12:53:33.926Z,99117.80
2018-12-02T12:56:38.286Z,99116.94
2018-12-02T12:59:58.103Z,99110.02
2018-12-02T13:03:17.098Z,99103.55
2018-12-02T13:06:21.440Z,99105.70
2018-12-02T13:09:28.197Z,99102.69
2018-12-02T13:12:32.724Z,99100.95
2018-12-02T13:15:37.879Z,99104.86
2018-12-02T13:18:42.383Z,99100.52
2018-12-02T13:21:52.620Z,99104.84
2018-12-02T13:24:57.068Z,99094.91
2018-12-02T13:28:01.513Z,99094.92
2018-12-02T13:31:06.266Z,99096.66
2018-12-02T13:34:11.198Z,99089.73
2018-12-02T13:37:15.582Z,99083.69
2018-12-02T13:40:21.223Z,99086.29
2018-12-02T13:43:26.781Z,99078.52
2018-12-02T13:46:39.039Z,99075.06
2018-12-02T13:49:43.542Z,99072.48
2018-12-02T13:52:49.589Z,99078.09
2018-12-02T13:55:54.102Z,99072.04
2018-12-02T13:58:58.379Z,99065.56
2018-12-02T14:02:02.908Z,99063.41
2018-12-02T14:05:10.490Z,99069.45
2018-12-02T14:08:16.394Z,99063.83
2018-12-02T14:11:21.089Z,99059.09
2018-12-02T14:14:27.912Z,99059.09
2018-12-02T14:17:33.686Z,99064.71
2018-12-02T14:20:38.279Z,99061.70
2018-12-02T14:23:44.421Z,99062.54
2018-12-02T14:26:49.877Z,99052.61
2018-12-02T14:29:56.279Z,99053.05
2018-12-02T14:33:00.554Z,99053.08
2018-12-02T14:36:05.115Z,99056.94
2018-12-02T14:39:12.746Z,99050.03
2018-12-02T14:42:17.679Z,99047.89
2018-12-02T14:45:22.213Z,99044.44
2018-12-02T14:48:27.316Z,99045.28
2018-12-02T14:51:31.929Z,99042.29
2018-12-02T14:54:36.861Z,99041.41
2018-12-02T14:57:41.744Z,99040.99
2018-12-02T15:00:48.195Z,99035.39
2018-12-02T15:03:53.238Z,99023.30
2018-12-02T15:06:57.869Z,99022.44
2018-12-02T15:10:02.475Z,99018.54
2018-12-02T15:13:07.845Z,99020.70
2018-12-02T15:16:12.543Z,99018.56
2018-12-02T15:19:17.355Z,99026.30
2018-12-02T15:22:21.715Z,99028.02
2018-12-02T15:25:26.133Z,99025.44
2018-12-02T15:28:30.701Z,99028.88
2018-12-02T15:31:35.301Z,99025.44
2018-12-02T15:34:40.859Z,99025.00
2018-12-02T15:37:45.306Z,99025.44
2018-12-02T15:40:49.808Z,99020.27
2018-12-02T15:43:54.342Z,99022.41
2018-12-02T15:46:58.834Z,99023.72
2018-12-02T15:50:14.276Z,99025.00
2018-12-02T15:53:18.668Z,99016.79
2018-12-02T15:56:24.494Z,99022.42
2018-12-02T15:59:30.224Z,99021.98
2018-12-02T16:02:35.664Z,99018.95
2018-12-02T16:05:40.052Z,99021.95
2018-12-02T16:08:53.876Z,99013.76
2018-12-02T16:11:59.807Z,99019.78
2018-12-02T16:15:05.206Z,99026.70
2018-12-02T16:18:12.914Z,99025.36
2018-12-02T16:24:33.186Z,99030.12
2018-12-02T16:27:37.879Z,99026.25
2018-12-02T16:30:42.601Z,99029.26
2018-12-02T16:33:47.018Z,99042.17
2018-12-02T16:36:52.790Z,99042.63
2018-12-02T16:39:58.087Z,99050.82
2018-12-02T16:43:02.564Z,99047.77
2018-12-02T16:46:07.670Z,99055.13
2018-12-02T16:49:16.473Z,99056.37
2018-12-02T16:55:57.981Z,99055.52
2018-12-02T16:59:15.866Z,99054.23
2018-12-02T17:02:21.188Z,99055.50
2018-12-02T17:05:25.651Z,99058.97
2018-12-02T17:08:30.304Z,99049.91
2018-12-02T17:11:35.030Z,99055.55
2018-12-02T17:14:40.287Z,99053.37
2018-12-02T17:17:46.782Z,99056.84
2018-12-02T17:24:10.566Z,99072.78
2018-12-02T17:27:16.606Z,99070.20
2018-12-02T17:30:59.483Z,99075.38
2018-12-02T17:34:06.785Z,99072.77
2018-12-02T17:37:20.596Z,99086.61
2018-12-02T17:40:25.428Z,99093.09
2018-12-02T17:43:30.585Z,99094.83
2018-12-02T17:46:38.239Z,99097.42
2018-12-02T17:49:52.752Z,99108.20
2018-12-02T17:52:57.793Z,99113.38
2018-12-02T17:57:11.183Z,99117.70
2018-12-02T18:00:24.999Z,99116.82
2018-12-02T18:03:33.462Z,99123.75
2018-12-02T18:06:43.415Z,99119.41
2018-12-02T18:09:47.866Z,99115.97
2018-12-02T18:12:53.408Z,99118.57
2018-12-02T18:15:59.158Z,99122.02
2018-12-02T18:19:09.032Z,99122.88
2018-12-02T18:22:18.178Z,99122.46
2018-12-02T18:28:36.348Z,99127.67
2018-12-02T18:31:41.423Z,99131.11
2018-12-02T18:34:47.715Z,99138.45
2018-12-02T18:37:54.737Z,99146.67
2018-12-02T18:41:08.049Z,99147.98
2018-12-02T18:44:17.563Z,99153.14
2018-12-02T18:51:42.758Z,99160.05
2018-12-02T18:54:48.589Z,99166.09
2018-12-02T18:57:53.297Z,99166.09
2018-12-02T19:00:58.985Z,99160.92
2018-12-02T19:04:04.414Z,99163.50
2018-12-02T19:07:09.400Z,99166.97
2018-12-02T19:10:21.736Z,99173.46
2018-12-02T19:13:31.247Z,99167.84
2018-12-02T19:16:36.113Z,99167.84
2018-12-02T19:19:50.059Z,99170.44
2018-12-02T19:22:58.275Z,99173.88
2018-12-02T19:26:03.406Z,99173.86
2018-12-02T19:29:09.891Z,99176.47
2018-12-02T19:32:15.002Z,99175.61
2018-12-02T19:35:26.498Z,99173.44
2018-12-02T19:38:33.709Z,99172.59
2018-12-02T19:41:38.589Z,99177.33
2018-12-02T19:44:44.716Z,99174.73
2018-12-02T19:47:49.846Z,99183.38
2018-12-02T19:50:54.461Z,99182.08
2018-12-02T19:54:01.536Z,99187.70
2018-12-02T19:57:06.953Z,99184.23
2018-12-02T20:00:24.829Z,99176.47
2018-12-02T20:03:31.706Z,99177.31
2018-12-02T20:06:37.108Z,99177.77
2018-12-02T20:09:41.787Z,99177.31
2018-12-02T20:12:46.725Z,99182.50
2018-12-02T20:15:58.106Z,99184.68
2018-12-02T20:19:06.803Z,99192.87
2018-12-02T20:22:12.652Z,99186.39
2018-12-02T20:25:18.238Z,99191.57
2018-12-02T20:28:26.568Z,99188.13
2018-12-02T20:31:31.523Z,99190.27
2018-12-02T20:34:37.957Z,99186.83
2018-12-02T20:37:42.823Z,99187.23
2018-12-02T20:40:47.747Z,99184.66
2018-12-02T20:43:52.316Z,99189.86
2018-12-02T20:46:57.594Z,99186.37
2018-12-02T20:50:05.790Z,99181.20
2018-12-02T20:53:15.928Z,99188.56
2018-12-02T20:56:15.472Z,99189.41
2018-12-02T20:59:20.295Z,99187.70
2018-12-02T21:02:27.263Z,99191.13
2018-12-02T21:05:39.592Z,99195.91
2018-12-02T21:08:44.355Z,99195.45
2018-12-02T21:11:48.960Z,99195.02
2018-12-02T21:14:53.788Z,99182.52
2018-12-02T21:17:58.422Z,99188.56
2018-12-02T21:24:15.582Z,99184.66
2018-12-02T21:27:20.775Z,99185.10
2018-12-02T21:30:28.704Z,99180.35
2018-12-02T21:33:33.382Z,99191.14
2018-12-02T21:36:38.095Z,99180.34
2018-12-02T21:39:43.299Z,99183.36
2018-12-02T21:42:48.304Z,99179.48
2018-12-02T21:45:53.141Z,99178.20
2018-12-02T21:48:57.868Z,99188.55
2018-12-02T21:52:02.721Z,99180.80
2018-12-02T21:55:08.565Z,99178.19
2018-12-02T21:58:13.437Z,99173.89
2018-12-02T22:01:18.181Z,99179.48
2018-12-02T22:04:22.714Z,99172.58
2018-12-02T22:07:27.995Z,99176.48
2018-12-02T22:10:33.986Z,99178.64
2018-12-02T22:13:43.385Z,99176.48
2018-12-02T22:16:43.560Z,99167.83
2018-12-02T22:19:48.157Z,99167.83
2018-12-02T22:22:53.049Z,99167.83
2018-12-02T22:25:57.639Z,99170.41
2018-12-02T22:29:02.310Z,99164.39
2018-12-02T22:32:07.278Z,99163.95
2018-12-02T22:35:13.197Z,99160.50
2018-12-02T22:38:18.240Z,99157.48
2018-12-02T22:41:22.827Z,99154.46
2018-12-02T22:44:31.468Z,99155.76
2018-12-02T22:47:33.157Z,99156.16
2018-12-02T22:50:37.960Z,99157.47
2018-12-02T22:53:42.349Z,99153.16
2018-12-02T22:56:46.858Z,99148.84
2018-12-02T22:59:51.432Z,99150.55
2018-12-02T23:03:01.254Z,99153.15
2018-12-02T23:06:05.681Z,99148.84
2018-12-02T23:09:10.180Z,99147.11
2018-12-02T23:12:14.828Z,99144.48
2018-12-02T23:15:19.741Z,99143.62
2018-12-02T23:18:24.659Z,99138.00
2018-12-02T23:21:29.109Z,99134.53
2018-12-02T23:24:33.658Z,99133.25
2018-12-02T23:27:38.067Z,99131.08
2018-12-02T23:30:42.521Z,99136.66
2018-12-02T23:33:46.950Z,99131.48
2018-12-02T23:36:51.833Z,99136.23
2018-12-02T23:39:57.307Z,99141.83
2018-12-02T23:43:02.247Z,99129.27
2018-12-02T23:46:06.664Z,99127.10
2018-12-02T23:49:11.031Z,99124.86
2018-12-02T23:52:15.455Z,99129.60
2018-12-02T23:55:20.861Z,99127.86
2018-12-02T23:58:25.585Z,99126.11
